Time,TemperatureF,DewpointF,PressureIn,WindDirection,WindDirectionDegrees,WindSpeedMPH,WindSpeedGustMPH,Humidity,HourlyPrecipIn,Conditions,Clouds,dailyrainin,SoftwareType,DateUTC
2013-07-20 00:12:00,83.0,-99.9,-100.00,South,169,1.0,2.0,-999,0.00,,,0.00,,2013-07-20 05:12:00,
2013-07-20 00:22:00,83.0,-99.9,-100.00,South,169,1.0,2.0,-999,0.00,,,0.00,,2013-07-20 05:22:00,
2013-07-20 00:32:00,83.0,-99.9,-100.00,SSW,207,5.0,10.0,-999,0.00,,,0.00,,2013-07-20 05:32:00,
2013-07-20 00:52:00,83.0,-99.9,-100.00,SSW,207,5.0,10.0,-999,0.00,,,0.00,,2013-07-20 05:52:00,
2013-07-20 01:11:00,83.0,-99.9,-100.00,SSW,204,5.0,8.0,-999,0.00,,,0.00,,2013-07-20 06:11:00,
2013-07-20 01:22:00,83.0,-99.9,-100.00,SSW,204,5.0,8.0,-999,0.00,,,0.00,,2013-07-20 06:22:00,
2013-07-20 01:43:00,83.0,-99.9,-100.00,SSW,202,3.0,5.0,-999,0.00,,,0.00,,2013-07-20 06:43:00,
2013-07-20 01:52:00,83.0,-99.9,-100.00,SSW,202,3.0,5.0,-999,0.00,,,0.00,,2013-07-20 06:52:00,
2013-07-20 02:12:00,82.0,-99.9,-100.00,SSW,202,4.0,6.0,-999,0.00,,,0.00,,2013-07-20 07:12:00,
2013-07-20 02:22:00,82.0,-99.9,-100.00,SSW,202,4.0,6.0,-999,0.00,,,0.00,,2013-07-20 07:22:00,
2013-07-20 02:44:00,82.0,-99.9,-100.00,SW,219,3.0,6.0,-999,0.00,,,0.00,,2013-07-20 07:44:00,
2013-07-20 02:54:00,82.0,-99.9,-100.00,SW,219,3.0,6.0,-999,0.00,,,0.00,,2013-07-20 07:54:00,
2013-07-20 03:11:00,81.0,-99.9,-100.00,SSW,206,1.0,2.0,-999,0.00,,,0.00,,2013-07-20 08:11:00,
2013-07-20 03:22:00,81.0,-99.9,-100.00,SSW,206,1.0,2.0,-999,0.00,,,0.00,,2013-07-20 08:22:00,
2013-07-20 03:44:00,81.0,-99.9,-100.00,NW,315,2.0,6.0,-999,0.00,,,0.00,,2013-07-20 08:44:00,
2013-07-20 03:52:00,81.0,-99.9,-100.00,NW,315,2.0,6.0,-999,0.00,,,0.00,,2013-07-20 08:52:00,
2013-07-20 04:11:00,80.0,-99.9,-100.00,NNW,346,3.0,5.0,-999,0.00,,,0.00,,2013-07-20 09:11:00,
2013-07-20 04:22:00,80.0,-99.9,-100.00,NNW,346,3.0,5.0,-999,0.00,,,0.00,,2013-07-20 09:22:00,
2013-07-20 04:33:00,79.0,-99.9,-100.00,South,189,0.0,1.0,-999,0.00,,,0.00,,2013-07-20 09:33:00,
2013-07-20 04:43:00,79.0,-99.9,-100.00,South,189,0.0,1.0,-999,0.00,,,0.00,,2013-07-20 09:43:00,
2013-07-20 04:53:00,79.0,-99.9,-100.00,South,189,0.0,1.0,-999,0.00,,,0.00,,2013-07-20 09:53:00,
2013-07-20 05:02:00,78.0,-99.9,-100.00,SSW,197,0.0,2.0,-999,0.00,,,0.00,,2013-07-20 10:02:00,
2013-07-20 05:11:00,78.0,-99.9,-100.00,SSW,197,0.0,2.0,-999,0.00,,,0.00,,2013-07-20 10:11:00,
2013-07-20 05:22:00,78.0,-99.9,-100.00,SSW,197,0.0,2.0,-999,0.00,,,0.00,,2013-07-20 10:22:00,
2013-07-20 05:42:00,79.0,-99.9,-100.00,WNW,288,1.0,3.0,-999,0.00,,,0.00,,2013-07-20 10:42:00,
2013-07-20 05:52:00,79.0,-99.9,-100.00,WNW,288,1.0,3.0,-999,0.00,,,0.00,,2013-07-20 10:52:00,
2013-07-20 06:02:00,78.0,-99.9,-100.00,West,278,2.0,3.0,-999,0.00,,,0.00,,2013-07-20 11:02:00,
2013-07-20 06:11:00,78.0,-99.9,-100.00,West,278,2.0,3.0,-999,0.00,,,0.00,,2013-07-20 11:11:00,
2013-07-20 06:22:00,78.0,-99.9,-100.00,West,278,2.0,3.0,-999,0.00,,,0.00,,2013-07-20 11:22:00,
2013-07-20 06:32:00,78.0,-99.9,-100.00,NNW,333,4.0,6.0,-999,0.00,,,0.00,,2013-07-20 11:32:00,
2013-07-20 06:43:00,78.0,-99.9,-100.00,NNW,333,4.0,6.0,-999,0.00,,,0.00,,2013-07-20 11:43:00,
2013-07-20 06:52:00,78.0,-99.9,-100.00,NNW,333,4.0,6.0,-999,0.00,,,0.00,,2013-07-20 11:52:00,
2013-07-20 07:11:00,78.0,-99.9,-100.00,NNW,333,3.0,4.0,-999,0.00,,,0.00,,2013-07-20 12:11:00,
2013-07-20 07:22:00,78.0,-99.9,-100.00,NNW,333,3.0,4.0,-999,0.00,,,0.00,,2013-07-20 12:22:00,
2013-07-20 07:32:00,77.0,-99.9,-100.00,North,1,6.0,9.0,-999,0.00,,,0.00,,2013-07-20 12:32:00,
2013-07-20 07:53:00,77.0,-99.9,-100.00,North,1,6.0,9.0,-999,0.00,,,0.00,,2013-07-20 12:53:00,
2013-07-20 08:11:00,77.0,-99.9,-100.00,North,3,6.0,11.0,-999,0.00,,,0.00,,2013-07-20 13:11:00,
2013-07-20 08:23:00,77.0,-99.9,-100.00,North,3,6.0,11.0,-999,0.00,,,0.00,,2013-07-20 13:23:00,
2013-07-20 08:43:00,78.0,-99.9,-100.00,North,3,8.0,10.0,-999,0.00,,,0.00,,2013-07-20 13:43:00,
2013-07-20 08:53:00,78.0,-99.9,-100.00,North,3,8.0,10.0,-999,0.00,,,0.00,,2013-07-20 13:53:00,
2013-07-20 09:02:00,79.0,-99.9,-100.00,NNE,25,11.0,13.0,-999,0.00,,,0.00,,2013-07-20 14:02:00,
2013-07-20 09:11:00,79.0,-99.9,-100.00,NNE,25,11.0,13.0,-999,0.00,,,0.00,,2013-07-20 14:11:00,
2013-07-20 09:22:00,79.0,-99.9,-100.00,NNE,25,11.0,13.0,-999,0.00,,,0.00,,2013-07-20 14:22:00,
2013-07-20 09:32:00,79.0,-99.9,-100.00,NNE,15,6.0,9.0,-999,0.00,,,0.00,,2013-07-20 14:32:00,
2013-07-20 09:43:00,79.0,-99.9,-100.00,NNE,15,6.0,9.0,-999,0.00,,,0.00,,2013-07-20 14:43:00,
2013-07-20 09:53:00,79.0,-99.9,-100.00,NNE,15,6.0,9.0,-999,0.00,,,0.00,,2013-07-20 14:53:00,
2013-07-20 10:01:00,80.0,-99.9,-100.00,North,5,7.0,9.0,-999,0.00,,,0.00,,2013-07-20 15:01:00,
2013-07-20 10:11:00,80.0,-99.9,-100.00,North,5,7.0,9.0,-999,0.00,,,0.00,,2013-07-20 15:11:00,
2013-07-20 10:23:00,80.0,-99.9,-100.00,North,5,7.0,9.0,-999,0.00,,,0.00,,2013-07-20 15:23:00,
2013-07-20 10:33:00,80.0,-99.9,-100.00,North,356,8.0,11.0,-999,0.00,,,0.00,,2013-07-20 15:33:00,
2013-07-20 10:44:00,80.0,-99.9,-100.00,North,356,8.0,11.0,-999,0.00,,,0.00,,2013-07-20 15:44:00,
2013-07-20 10:53:00,80.0,-99.9,-100.00,North,356,8.0,11.0,-999,0.00,,,0.00,,2013-07-20 15:53:00,
2013-07-20 11:11:00,81.0,-99.9,-100.00,North,11,9.0,11.0,-999,0.00,,,0.00,,2013-07-20 16:11:00,
2013-07-20 11:22:00,81.0,-99.9,-100.00,North,11,9.0,11.0,-999,0.00,,,0.00,,2013-07-20 16:22:00,
2013-07-20 11:30:00,84.0,-99.9,-100.00,NE,34,10.0,13.0,-999,0.00,,,0.00,,2013-07-20 16:30:00,
2013-07-20 11:44:00,83.0,-99.9,-100.00,NNE,13,8.0,12.0,-999,0.00,,,0.00,,2013-07-20 16:44:00,
2013-07-20 11:52:00,83.0,-99.9,-100.00,NNE,13,8.0,12.0,-999,0.00,,,0.00,,2013-07-20 16:52:00,
2013-07-20 12:11:00,84.0,-99.9,-100.00,NE,34,10.0,13.0,-999,0.00,,,0.00,,2013-07-20 17:11:00,
2013-07-20 12:22:00,84.0,-99.9,-100.00,NE,34,10.0,13.0,-999,0.00,,,0.00,,2013-07-20 17:22:00,
2013-07-20 13:00:00,83.0,-99.9,-100.00,North,3,8.0,11.0,-999,0.00,,,0.00,,2013-07-20 18:00:00,
2013-07-20 13:12:00,84.0,-99.9,-100.00,NNE,15,9.0,12.0,-999,0.00,,,0.00,,2013-07-20 18:12:00,
2013-07-20 13:26:00,84.0,-99.9,-100.00,NNE,15,9.0,12.0,-999,0.00,,,0.00,,2013-07-20 18:26:00,
2013-07-20 13:38:00,83.0,-99.9,-100.00,North,3,8.0,11.0,-999,0.00,,,0.00,,2013-07-20 18:38:00,
2013-07-20 13:48:00,83.0,-99.9,-100.00,North,3,8.0,11.0,-999,0.00,,,0.00,,2013-07-20 18:48:00,
2013-07-20 14:17:00,83.0,-99.9,-100.00,North,355,8.0,9.0,-999,0.00,,,0.00,,2013-07-20 19:17:00,
2013-07-20 14:36:00,83.0,-99.9,-100.00,North,5,8.0,10.0,-999,0.00,,,0.00,,2013-07-20 19:36:00,
2013-07-20 14:45:00,83.0,-99.9,-100.00,North,5,8.0,10.0,-999,0.00,,,0.00,,2013-07-20 19:45:00,
2013-07-20 14:59:00,83.0,-99.9,-100.00,North,5,8.0,10.0,-999,0.00,,,0.00,,2013-07-20 19:59:00,
2013-07-20 15:16:00,83.0,-99.9,-100.00,North,1,5.0,6.0,-999,0.00,,,0.00,,2013-07-20 20:16:00,
2013-07-20 15:47:00,84.0,-99.9,-100.00,North,350,4.0,6.0,-999,0.00,,,0.00,,2013-07-20 20:47:00,
2013-07-20 15:59:00,84.0,-99.9,-100.00,North,350,4.0,6.0,-999,0.00,,,0.00,,2013-07-20 20:59:00,
2013-07-20 16:08:00,84.0,-99.9,-100.00,North,359,4.0,6.0,-999,0.00,,,0.00,,2013-07-20 21:08:00,
2013-07-20 16:15:00,84.0,-99.9,-100.00,North,359,4.0,6.0,-999,0.00,,,0.00,,2013-07-20 21:15:00,
2013-07-20 16:28:00,84.0,-99.9,-100.00,North,359,4.0,6.0,-999,0.00,,,0.00,,2013-07-20 21:28:00,
2013-07-20 16:49:00,84.0,-99.9,-100.00,NNE,14,4.0,7.0,-999,0.00,,,0.00,,2013-07-20 21:49:00,
2013-07-20 17:19:00,86.0,-99.9,-100.00,North,354,5.0,6.0,-999,0.00,,,0.00,,2013-07-20 22:19:00,
2013-07-20 17:28:00,86.0,-99.9,-100.00,North,354,5.0,6.0,-999,0.00,,,0.00,,2013-07-20 22:28:00,
2013-07-20 17:30:00,86.0,-99.9,-100.00,North,6,6.0,9.0,-999,0.00,,,0.00,,2013-07-20 22:30:00,
2013-07-20 17:39:00,86.0,-99.9,-100.00,NNW,348,4.0,6.0,-999,0.00,,,0.00,,2013-07-20 22:39:00,
2013-07-20 17:51:00,86.0,-99.9,-100.00,NNW,348,4.0,6.0,-999,0.00,,,0.00,,2013-07-20 22:51:00,
2013-07-20 17:57:00,86.0,-99.9,-100.00,NNW,348,4.0,6.0,-999,0.00,,,0.00,,2013-07-20 22:57:00,
2013-07-20 18:18:00,86.0,-99.9,-100.00,North,6,6.0,9.0,-999,0.00,,,0.00,,2013-07-20 23:18:00,
2013-07-20 18:29:00,86.0,-99.9,-100.00,North,6,6.0,9.0,-999,0.00,,,0.00,,2013-07-20 23:29:00,
2013-07-20 19:09:00,86.0,-99.9,-100.00,NNE,16,6.0,9.0,-999,0.00,,,0.00,,2013-07-21 00:09:00,
2013-07-20 19:18:00,86.0,-99.9,-100.00,NNE,16,6.0,9.0,-999,0.00,,,0.00,,2013-07-21 00:18:00,
2013-07-20 19:24:00,86.0,-99.9,-100.00,NNE,16,6.0,9.0,-999,0.00,,,0.00,,2013-07-21 00:24:00,
2013-07-20 19:30:00,86.0,-99.9,-100.00,ENE,68,3.0,5.0,-999,0.00,,,0.00,,2013-07-21 00:30:00,
2013-07-20 19:46:00,87.0,-99.9,-100.00,ENE,63,3.0,5.0,-999,0.00,,,0.00,,2013-07-21 00:46:00,
2013-07-20 20:13:00,86.0,-99.9,-100.00,ENE,68,3.0,5.0,-999,0.00,,,0.00,,2013-07-21 01:13:00,
2013-07-20 21:19:00,84.0,-99.9,-100.00,East,86,1.0,2.0,-999,0.00,,,0.00,,2013-07-21 02:19:00,
2013-07-20 21:29:00,84.0,-99.9,-100.00,East,86,1.0,2.0,-999,0.00,,,0.00,,2013-07-21 02:29:00,
2013-07-20 21:39:00,82.0,-99.9,-100.00,ESE,121,2.0,5.0,-999,0.00,,,0.00,,2013-07-21 02:39:00,
2013-07-20 21:59:00,82.0,-99.9,-100.00,ESE,121,2.0,5.0,-999,0.00,,,0.00,,2013-07-21 02:59:00,
2013-07-20 22:00:00,77.0,-99.9,-100.00,SE,139,1.0,2.0,-999,0.00,,,0.00,,2013-07-21 03:00:00,
2013-07-20 22:15:00,79.0,-99.9,-100.00,SSE,150,1.0,3.0,-999,0.00,,,0.00,,2013-07-21 03:15:00,
2013-07-20 22:37:00,77.0,-99.9,-100.00,SE,139,1.0,2.0,-999,0.00,,,0.00,,2013-07-21 03:37:00,
2013-07-20 22:47:00,77.0,-99.9,-100.00,SE,139,1.0,2.0,-999,0.00,,,0.00,,2013-07-21 03:47:00,
2013-07-20 23:11:00,77.0,-99.9,-100.00,ESE,122,0.0,1.0,-999,0.00,,,0.00,,2013-07-21 04:11:00,
2013-07-20 23:22:00,77.0,-99.9,-100.00,ESE,122,0.0,1.0,-999,0.00,,,0.00,,2013-07-21 04:22:00,
2013-07-20 23:30:00,75.0,-99.9,-100.00,SSE,156,0.0,0.0,-999,0.00,,,0.00,,2013-07-21 04:30:00,
2013-07-20 23:43:00,76.0,-99.9,-100.00,ESE,111,1.0,2.0,-999,0.00,,,0.00,,2013-07-21 04:43:00,
2013-07-20 23:53:00,76.0,-99.9,-100.00,ESE,111,1.0,2.0,-999,0.00,,,0.00,,2013-07-21 04:53:00,